sensor_id;sensor_type;location;lat;lon;timestamp;pressure;altitude;pressure_sealevel;temperature;humidity
82555;BME280;72219;48.186;11.554;2024-01-06T00:01:31;94485.84;;;15.90;45.45
82555;BME280;72219;48.186;11.554;2024-01-06T00:03:56;94496.91;;;15.85;46.03
82555;BME280;72219;48.186;11.554;2024-01-06T00:06:22;94494.50;;;15.90;45.90
82555;BME280;72219;48.186;11.554;2024-01-06T00:08:47;94491.69;;;15.92;45.74
82555;BME280;72219;48.186;11.554;2024-01-06T00:11:19;94501.72;;;15.88;45.60
82555;BME280;72219;48.186;11.554;2024-01-06T00:13:45;94500.50;;;15.91;45.37
82555;BME280;72219;48.186;11.554;2024-01-06T00:16:12;94494.91;;;15.87;45.64
82555;BME280;72219;48.186;11.554;2024-01-06T00:18:37;94485.88;;;15.83;45.57
82555;BME280;72219;48.186;11.554;2024-01-06T00:21:03;94482.88;;;15.86;45.34
82555;BME280;72219;48.186;11.554;2024-01-06T00:23:28;94485.47;;;15.86;45.86
82555;BME280;72219;48.186;11.554;2024-01-06T00:25:54;94483.66;;;15.87;45.87
82555;BME280;72219;48.186;11.554;2024-01-06T00:28:19;94472.63;;;15.85;45.76
82555;BME280;72219;48.186;11.554;2024-01-06T00:30:44;94479.84;;;15.96;45.56
82555;BME280;72219;48.186;11.554;2024-01-06T00:33:10;94479.25;;;15.87;45.86
82555;BME280;72219;48.186;11.554;2024-01-06T00:35:36;94482.44;;;15.89;45.26
82555;BME280;72219;48.186;11.554;2024-01-06T00:38:02;94480.66;;;15.83;45.84
82555;BME280;72219;48.186;11.554;2024-01-06T00:40:27;94476.25;;;15.84;45.81
82555;BME280;72219;48.186;11.554;2024-01-06T00:42:53;94479.44;;;15.86;45.41
82555;BME280;72219;48.186;11.554;2024-01-06T00:45:18;94490.91;;;15.85;45.81
82555;BME280;72219;48.186;11.554;2024-01-06T00:47:43;94488.50;;;15.83;45.56
82555;BME280;72219;48.186;11.554;2024-01-06T00:50:09;94469.59;;;15.74;45.97
82555;BME280;72219;48.186;11.554;2024-01-06T00:52:34;94472.41;;;15.79;45.44
82555;BME280;72219;48.186;11.554;2024-01-06T00:54:59;94480.84;;;15.81;45.77
82555;BME280;72219;48.186;11.554;2024-01-06T00:57:25;94475.03;;;15.73;46.13
82555;BME280;72219;48.186;11.554;2024-01-06T00:59:50;94474.19;;;15.79;45.72
82555;BME280;72219;48.186;11.554;2024-01-06T01:02:16;94465.59;;;15.72;45.87
82555;BME280;72219;48.186;11.554;2024-01-06T01:04:41;94465.78;;;15.77;45.86
82555;BME280;72219;48.186;11.554;2024-01-06T01:07:06;94463.59;;;15.74;45.82
82555;BME280;72219;48.186;11.554;2024-01-06T01:09:32;94470.81;;;15.72;45.78
82555;BME280;72219;48.186;11.554;2024-01-06T01:11:57;94469.81;;;15.79;45.36
82555;BME280;72219;48.186;11.554;2024-01-06T01:14:22;94479.81;;;15.69;45.47
82555;BME280;72219;48.186;11.554;2024-01-06T01:16:48;94475.59;;;15.75;45.66
82555;BME280;72219;48.186;11.554;2024-01-06T01:19:13;94480.66;;;15.70;45.59
82555;BME280;72219;48.186;11.554;2024-01-06T01:21:39;94478.22;;;15.75;45.47
82555;BME280;72219;48.186;11.554;2024-01-06T01:24:05;94477.63;;;15.73;45.81
82555;BME280;72219;48.186;11.554;2024-01-06T01:26:30;94487.44;;;15.77;45.71
82555;BME280;72219;48.186;11.554;2024-01-06T01:28:55;94477.84;;;15.78;45.87
82555;BME280;72219;48.186;11.554;2024-01-06T01:31:21;94478.63;;;15.72;45.49
82555;BME280;72219;48.186;11.554;2024-01-06T01:33:46;94476.63;;;15.67;45.58
82555;BME280;72219;48.186;11.554;2024-01-06T01:36:12;94482.22;;;15.71;45.23
82555;BME280;72219;48.186;11.554;2024-01-06T01:38:37;94486.84;;;15.69;45.94
82555;BME280;72219;48.186;11.554;2024-01-06T01:41:03;94473.63;;;15.57;45.55
82555;BME280;72219;48.186;11.554;2024-01-06T01:43:28;94491.09;;;15.70;45.47
82555;BME280;72219;48.186;11.554;2024-01-06T01:45:54;94489.06;;;15.65;45.50
82555;BME280;72219;48.186;11.554;2024-01-06T01:48:20;94488.84;;;15.60;45.57
82555;BME280;72219;48.186;11.554;2024-01-06T01:50:47;94488.84;;;15.60;45.55
82555;BME280;72219;48.186;11.554;2024-01-06T01:53:12;94492.28;;;15.67;45.62
82555;BME280;72219;48.186;11.554;2024-01-06T01:55:39;94486.66;;;15.63;45.71
82555;BME280;72219;48.186;11.554;2024-01-06T01:58:05;94495.09;;;15.66;45.59
82555;BME280;72219;48.186;11.554;2024-01-06T02:00:31;94493.69;;;15.70;45.83
82555;BME280;72219;48.186;11.554;2024-01-06T02:02:56;94490.88;;;15.64;45.48
82555;BME280;72219;48.186;11.554;2024-01-06T02:05:23;94498.91;;;15.63;45.96
82555;BME280;72219;48.186;11.554;2024-01-06T02:07:49;94494.69;;;15.62;45.47
82555;BME280;72219;48.186;11.554;2024-01-06T02:10:16;94502.09;;;15.65;45.52
82555;BME280;72219;48.186;11.554;2024-01-06T02:12:41;94504.91;;;15.63;45.48
82555;BME280;72219;48.186;11.554;2024-01-06T02:15:09;94503.09;;;15.64;45.69
82555;BME280;72219;48.186;11.554;2024-01-06T02:17:35;94505.09;;;15.62;45.67
82555;BME280;72219;48.186;11.554;2024-01-06T02:20:01;94502.31;;;15.63;45.81
82555;BME280;72219;48.186;11.554;2024-01-06T02:22:26;94498.50;;;15.59;45.84
82555;BME280;72219;48.186;11.554;2024-01-06T02:24:51;94494.88;;;15.54;45.67
82555;BME280;72219;48.186;11.554;2024-01-06T02:27:17;94496.28;;;15.56;45.98
82555;BME280;72219;48.186;11.554;2024-01-06T02:29:42;94483.84;;;15.45;45.77
82555;BME280;72219;48.186;11.554;2024-01-06T02:32:08;94493.69;;;15.56;45.60
82555;BME280;72219;48.186;11.554;2024-01-06T02:34:33;94501.09;;;15.59;45.56
82555;BME280;72219;48.186;11.554;2024-01-06T02:36:59;94505.53;;;15.59;45.85
82555;BME280;72219;48.186;11.554;2024-01-06T02:39:25;94496.09;;;15.58;45.65
82555;BME280;72219;48.186;11.554;2024-01-06T02:41:50;94505.69;;;15.57;45.55
82555;BME280;72219;48.186;11.554;2024-01-06T02:44:15;94506.09;;;15.54;45.67
82555;BME280;72219;48.186;11.554;2024-01-06T02:46:41;94505.09;;;15.55;45.90
82555;BME280;72219;48.186;11.554;2024-01-06T02:49:07;94506.09;;;15.54;45.65
82555;BME280;72219;48.186;11.554;2024-01-06T02:51:33;94506.50;;;15.51;45.61
82555;BME280;72219;48.186;11.554;2024-01-06T02:53:58;94511.53;;;15.53;45.73
82555;BME280;72219;48.186;11.554;2024-01-06T02:56:23;94511.94;;;15.56;45.75
82555;BME280;72219;48.186;11.554;2024-01-06T02:58:49;94523.34;;;15.55;45.72
82555;BME280;72219;48.186;11.554;2024-01-06T03:01:14;94516.72;;;15.46;45.55
82555;BME280;72219;48.186;11.554;2024-01-06T03:03:40;94520.34;;;15.52;45.97
82555;BME280;72219;48.186;11.554;2024-01-06T03:06:06;94517.53;;;15.53;45.87
82555;BME280;72219;48.186;11.554;2024-01-06T03:08:31;94520.75;;;15.48;45.91
82555;BME280;72219;48.186;11.554;2024-01-06T03:10:57;94520.94;;;15.47;45.89
82555;BME280;72219;48.186;11.554;2024-01-06T03:13:23;94516.09;;;15.44;46.12
82555;BME280;72219;48.186;11.554;2024-01-06T03:15:48;94524.53;;;15.46;45.71
82555;BME280;72219;48.186;11.554;2024-01-06T03:18:13;94523.34;;;15.42;46.13
82555;BME280;72219;48.186;11.554;2024-01-06T03:20:39;94528.78;;;15.47;45.98
82555;BME280;72219;48.186;11.554;2024-01-06T03:23:04;94534.78;;;15.47;45.64
82555;BME280;72219;48.186;11.554;2024-01-06T03:25:30;94528.97;;;15.45;45.71
82555;BME280;72219;48.186;11.554;2024-01-06T03:27:57;94534.75;;;15.41;45.57
82555;BME280;72219;48.186;11.554;2024-01-06T03:30:22;94540.59;;;15.36;46.08
82555;BME280;72219;48.186;11.554;2024-01-06T03:32:47;94536.78;;;15.39;45.91
82555;BME280;72219;48.186;11.554;2024-01-06T03:35:13;94536.16;;;15.43;46.09
82555;BME280;72219;48.186;11.554;2024-01-06T03:37:39;94534.56;;;15.42;45.66
82555;BME280;72219;48.186;11.554;2024-01-06T03:40:05;94516.47;;;15.21;45.99
82555;BME280;72219;48.186;11.554;2024-01-06T03:42:31;94533.75;;;15.35;46.38
82555;BME280;72219;48.186;11.554;2024-01-06T03:44:57;94528.13;;;15.31;46.08
82555;BME280;72219;48.186;11.554;2024-01-06T03:47:24;94535.34;;;15.29;46.34
82555;BME280;72219;48.186;11.554;2024-01-06T03:49:56;94538.19;;;15.35;45.84
82555;BME280;72219;48.186;11.554;2024-01-06T03:52:24;94540.16;;;15.33;45.99
82555;BME280;72219;48.186;11.554;2024-01-06T03:54:50;94542.34;;;15.29;46.10
82555;BME280;72219;48.186;11.554;2024-01-06T03:57:15;94552.59;;;15.24;46.28
82555;BME280;72219;48.186;11.554;2024-01-06T03:59:41;94547.75;;;15.27;46.30
82555;BME280;72219;48.186;11.554;2024-01-06T04:02:07;94550.00;;;15.30;46.17
82555;BME280;72219;48.186;11.554;2024-01-06T04:04:32;94551.38;;;15.33;45.79
82555;BME280;72219;48.186;11.554;2024-01-06T04:06:58;94557.22;;;15.35;45.73
82555;BME280;72219;48.186;11.554;2024-01-06T04:09:23;94550.00;;;15.30;45.79
82555;BME280;72219;48.186;11.554;2024-01-06T04:11:48;94555.22;;;15.30;46.28
82555;BME280;72219;48.186;11.554;2024-01-06T04:14:14;94559.03;;;15.35;45.92
82555;BME280;72219;48.186;11.554;2024-01-06T04:16:40;94557.00;;;15.30;46.01
82555;BME280;72219;48.186;11.554;2024-01-06T04:19:06;94562.22;;;15.37;45.83
82555;BME280;72219;48.186;11.554;2024-01-06T04:21:32;94571.47;;;15.39;45.59
82555;BME280;72219;48.186;11.554;2024-01-06T04:23:57;94558.19;;;15.27;46.24
82555;BME280;72219;48.186;11.554;2024-01-06T04:26:23;94561.19;;;15.24;45.69
82555;BME280;72219;48.186;11.554;2024-01-06T04:28:48;94581.47;;;15.36;46.11
82555;BME280;72219;48.186;11.554;2024-01-06T04:31:14;94578.84;;;15.36;45.62
82555;BME280;72219;48.186;11.554;2024-01-06T04:33:39;94584.28;;;15.34;46.03
82555;BME280;72219;48.186;11.554;2024-01-06T04:36:06;94568.41;;;15.29;45.78
82555;BME280;72219;48.186;11.554;2024-01-06T04:38:32;94572.84;;;15.28;45.61
82555;BME280;72219;48.186;11.554;2024-01-06T04:40:57;94578.84;;;15.29;46.22
82555;BME280;72219;48.186;11.554;2024-01-06T04:43:23;94573.25;;;15.32;46.07
82555;BME280;72219;48.186;11.554;2024-01-06T04:45:48;94575.44;;;15.28;45.93
82555;BME280;72219;48.186;11.554;2024-01-06T04:48:15;94581.28;;;15.30;45.86
82555;BME280;72219;48.186;11.554;2024-01-06T04:50:41;94576.84;;;15.24;46.25
82555;BME280;72219;48.186;11.554;2024-01-06T04:53:06;94586.84;;;15.27;45.64
82555;BME280;72219;48.186;11.554;2024-01-06T04:55:31;94591.88;;;15.29;45.78
82555;BME280;72219;48.186;11.554;2024-01-06T04:57:57;94581.81;;;15.19;46.08
82555;BME280;72219;48.186;11.554;2024-01-06T05:00:22;94580.22;;;15.18;46.34
82555;BME280;72219;48.186;11.554;2024-01-06T05:02:48;94581.81;;;15.19;45.95
82555;BME280;72219;48.186;11.554;2024-01-06T05:05:13;94595.28;;;15.29;45.95
82555;BME280;72219;48.186;11.554;2024-01-06T05:07:39;94593.88;;;15.27;45.76
82555;BME280;72219;48.186;11.554;2024-01-06T05:10:04;94594.44;;;15.22;45.91
82555;BME280;72219;48.186;11.554;2024-01-06T05:12:30;94592.47;;;15.24;46.11
82555;BME280;72219;48.186;11.554;2024-01-06T05:14:55;94599.28;;;15.25;46.12
82555;BME280;72219;48.186;11.554;2024-01-06T05:17:20;94605.94;;;15.28;46.01
82555;BME280;72219;48.186;11.554;2024-01-06T05:19:46;94612.53;;;15.24;45.90
82555;BME280;72219;48.186;11.554;2024-01-06T05:22:11;94606.69;;;15.22;46.27
82555;BME280;72219;48.186;11.554;2024-01-06T05:24:37;94605.28;;;15.19;45.85
82555;BME280;72219;48.186;11.554;2024-01-06T05:27:02;94615.50;;;15.21;46.22
82555;BME280;72219;48.186;11.554;2024-01-06T05:29:28;94606.25;;;15.18;45.72
82555;BME280;72219;48.186;11.554;2024-01-06T05:31:53;94613.13;;;15.26;45.58
82555;BME280;72219;48.186;11.554;2024-01-06T05:34:19;94614.94;;;15.25;45.91
82555;BME280;72219;48.186;11.554;2024-01-06T05:36:44;94616.91;;;15.23;45.70
82555;BME280;72219;48.186;11.554;2024-01-06T05:39:10;94620.31;;;15.17;46.16
82555;BME280;72219;48.186;11.554;2024-01-06T05:41:39;94622.31;;;15.15;46.43
82555;BME280;72219;48.186;11.554;2024-01-06T05:44:04;94636.94;;;15.16;46.12
82555;BME280;72219;48.186;11.554;2024-01-06T05:46:30;94635.13;;;15.17;45.97
82555;BME280;72219;48.186;11.554;2024-01-06T05:48:55;94645.75;;;15.15;46.24
82555;BME280;72219;48.186;11.554;2024-01-06T05:51:22;94647.56;;;15.14;46.31
82555;BME280;72219;48.186;11.554;2024-01-06T05:53:47;94654.56;;;15.14;46.42
82555;BME280;72219;48.186;11.554;2024-01-06T05:56:22;94645.53;;;15.10;45.98
82555;BME280;72219;48.186;11.554;2024-01-06T05:58:50;94664.78;;;15.16;45.83
82555;BME280;72219;48.186;11.554;2024-01-06T06:01:16;94659.94;;;15.06;46.21
82555;BME280;72219;48.186;11.554;2024-01-06T06:03:42;94667.38;;;15.09;45.50
82555;BME280;72219;48.186;11.554;2024-01-06T06:06:08;94669.75;;;15.04;46.24
82555;BME280;72219;48.186;11.554;2024-01-06T06:08:33;94679.56;;;15.02;46.06
82555;BME280;72219;48.186;11.554;2024-01-06T06:10:59;94683.16;;;15.01;46.42
82555;BME280;72219;48.186;11.554;2024-01-06T06:13:30;94678.31;;;14.97;46.55
82555;BME280;72219;48.186;11.554;2024-01-06T06:15:55;94680.94;;;14.97;46.49
82555;BME280;72219;48.186;11.554;2024-01-06T06:18:21;94681.13;;;14.96;46.20
82555;BME280;72219;48.186;11.554;2024-01-06T06:20:46;94678.28;;;14.91;46.17
82555;BME280;72219;48.186;11.554;2024-01-06T06:23:12;94695.56;;;14.99;46.13
82555;BME280;72219;48.186;11.554;2024-01-06T06:25:40;94693.91;;;14.91;46.72
82555;BME280;72219;48.186;11.554;2024-01-06T06:28:06;94697.56;;;14.96;46.82
82555;BME280;72219;48.186;11.554;2024-01-06T06:30:32;94699.13;;;14.91;46.55
82555;BME280;72219;48.186;11.554;2024-01-06T06:32:58;94700.31;;;14.88;46.44
82555;BME280;72219;48.186;11.554;2024-01-06T06:35:24;94698.69;;;14.87;46.58
82555;BME280;72219;48.186;11.554;2024-01-06T06:37:49;94706.94;;;14.91;46.51
82555;BME280;72219;48.186;11.554;2024-01-06T06:40:15;94708.75;;;14.90;45.95
82555;BME280;72219;48.186;11.554;2024-01-06T06:42:40;94703.31;;;14.85;46.47
82555;BME280;72219;48.186;11.554;2024-01-06T06:45:06;94718.97;;;14.92;46.36
82555;BME280;72219;48.186;11.554;2024-01-06T06:47:31;94720.78;;;14.91;46.20
82555;BME280;72219;48.186;11.554;2024-01-06T06:49:57;94726.78;;;14.92;46.30
82555;BME280;72219;48.186;11.554;2024-01-06T06:52:22;94717.94;;;14.86;46.42
82555;BME280;72219;48.186;11.554;2024-01-06T06:54:47;94727.03;;;14.97;46.31
82555;BME280;72219;48.186;11.554;2024-01-06T06:57:15;94725.22;;;14.97;46.06
82555;BME280;72219;48.186;11.554;2024-01-06T06:59:40;94715.94;;;14.88;46.53
82555;BME280;72219;48.186;11.554;2024-01-06T07:02:06;94728.41;;;14.93;46.56
82555;BME280;72219;48.186;11.554;2024-01-06T07:04:32;94732.00;;;14.92;46.30
82555;BME280;72219;48.186;11.554;2024-01-06T07:06:57;94721.72;;;14.84;46.10
82555;BME280;72219;48.186;11.554;2024-01-06T07:09:22;94723.94;;;14.87;46.52
82555;BME280;72219;48.186;11.554;2024-01-06T07:11:50;94721.34;;;14.87;46.57
82555;BME280;72219;48.186;11.554;2024-01-06T07:14:16;94729.94;;;14.87;46.32
82555;BME280;72219;48.186;11.554;2024-01-06T07:16:42;94729.09;;;14.80;46.68
82555;BME280;72219;48.186;11.554;2024-01-06T07:19:07;94724.56;;;14.89;46.34
82555;BME280;72219;48.186;11.554;2024-01-06T07:21:33;94708.66;;;14.77;46.29
82555;BME280;72219;48.186;11.554;2024-01-06T07:23:58;94736.59;;;14.90;46.49
82555;BME280;72219;48.186;11.554;2024-01-06T07:26:27;94737.41;;;14.90;46.09
82555;BME280;72219;48.186;11.554;2024-01-06T07:28:52;94736.22;;;14.93;46.23
82555;BME280;72219;48.186;11.554;2024-01-06T07:31:18;94745.47;;;14.95;46.33
82555;BME280;72219;48.186;11.554;2024-01-06T07:33:43;94749.44;;;14.91;46.24
82555;BME280;72219;48.186;11.554;2024-01-06T07:36:08;94753.63;;;14.92;46.50
82555;BME280;72219;48.186;11.554;2024-01-06T07:38:34;94758.53;;;15.02;47.37
82555;BME280;72219;48.186;11.554;2024-01-06T07:40:59;94760.56;;;15.07;47.97
82555;BME280;72219;48.186;11.554;2024-01-06T07:43:24;94740.47;;;15.01;47.67
82555;BME280;72219;48.186;11.554;2024-01-06T07:45:50;94754.75;;;15.11;47.91
82555;BME280;72219;48.186;11.554;2024-01-06T07:48:16;94762.56;;;15.11;47.83
82555;BME280;72219;48.186;11.554;2024-01-06T07:50:41;94769.00;;;15.09;47.86
82555;BME280;72219;48.186;11.554;2024-01-06T07:53:07;94775.78;;;15.10;47.99
82555;BME280;72219;48.186;11.554;2024-01-06T07:55:32;94773.38;;;15.08;48.16
82555;BME280;72219;48.186;11.554;2024-01-06T07:57:58;94776.44;;;15.12;48.09
82555;BME280;72219;48.186;11.554;2024-01-06T08:00:23;94776.19;;;15.07;48.33
82555;BME280;72219;48.186;11.554;2024-01-06T08:02:49;94783.81;;;15.08;47.96
82555;BME280;72219;48.186;11.554;2024-01-06T08:05:14;94784.78;;;15.07;48.33
82555;BME280;72219;48.186;11.554;2024-01-06T08:07:40;94785.97;;;15.05;48.10
82555;BME280;72219;48.186;11.554;2024-01-06T08:10:05;94779.97;;;15.04;48.00
82555;BME280;72219;48.186;11.554;2024-01-06T08:12:32;94781.78;;;15.04;47.92
82555;BME280;72219;48.186;11.554;2024-01-06T08:14:57;94796.88;;;15.15;48.00
82555;BME280;72219;48.186;11.554;2024-01-06T08:17:22;94794.66;;;15.12;48.28
82555;BME280;72219;48.186;11.554;2024-01-06T08:19:48;94799.09;;;15.18;48.21
82555;BME280;72219;48.186;11.554;2024-01-06T08:22:13;94789.06;;;15.15;47.84
82555;BME280;72219;48.186;11.554;2024-01-06T08:24:39;94792.66;;;15.14;47.85
82555;BME280;72219;48.186;11.554;2024-01-06T08:27:04;94800.31;;;15.22;48.09
82555;BME280;72219;48.186;11.554;2024-01-06T08:29:30;94795.50;;;15.19;47.89
82555;BME280;72219;48.186;11.554;2024-01-06T08:31:55;94797.75;;;15.29;47.47
82555;BME280;72219;48.186;11.554;2024-01-06T08:34:21;94805.41;;;15.30;47.73
82555;BME280;72219;48.186;11.554;2024-01-06T08:36:47;94808.63;;;15.33;47.64
82555;BME280;72219;48.186;11.554;2024-01-06T08:39:12;94797.59;;;15.30;47.80
82555;BME280;72219;48.186;11.554;2024-01-06T08:41:38;94802.66;;;15.39;47.73
82555;BME280;72219;48.186;11.554;2024-01-06T08:44:04;94807.88;;;15.39;47.43
82555;BME280;72219;48.186;11.554;2024-01-06T08:46:29;94814.47;;;15.35;47.37
82555;BME280;72219;48.186;11.554;2024-01-06T08:48:56;94812.44;;;15.37;47.63
82555;BME280;72219;48.186;11.554;2024-01-06T08:51:21;94816.28;;;15.41;47.35
82555;BME280;72219;48.186;11.554;2024-01-06T08:53:47;94810.63;;;15.30;47.51
82555;BME280;72219;48.186;11.554;2024-01-06T08:56:12;94821.47;;;15.34;47.39
82555;BME280;72219;48.186;11.554;2024-01-06T08:58:37;94818.81;;;15.27;47.32
82555;BME280;72219;48.186;11.554;2024-01-06T09:01:03;94825.63;;;15.28;47.40
82555;BME280;72219;48.186;11.554;2024-01-06T09:03:28;94825.69;;;15.35;47.28
82555;BME280;72219;48.186;11.554;2024-01-06T09:05:56;94828.28;;;15.35;47.17
82555;BME280;72219;48.186;11.554;2024-01-06T09:08:21;94827.34;;;15.43;47.11
82555;BME280;72219;48.186;11.554;2024-01-06T09:10:47;94831.94;;;15.41;47.56
82555;BME280;72219;48.186;11.554;2024-01-06T09:13:13;94833.94;;;15.39;47.56
82555;BME280;72219;48.186;11.554;2024-01-06T09:15:39;94830.50;;;15.38;47.48
82555;BME280;72219;48.186;11.554;2024-01-06T09:18:04;94835.31;;;15.35;47.78
82555;BME280;72219;48.186;11.554;2024-01-06T09:20:29;94836.31;;;15.34;47.59
82555;BME280;72219;48.186;11.554;2024-01-06T09:22:55;94834.94;;;15.38;47.88
82555;BME280;72219;48.186;11.554;2024-01-06T09:25:20;94830.16;;;15.41;47.67
82555;BME280;72219;48.186;11.554;2024-01-06T09:27:49;94831.56;;;15.51;47.22
82555;BME280;72219;48.186;11.554;2024-01-06T09:30:16;94827.94;;;15.45;47.77
82555;BME280;72219;48.186;11.554;2024-01-06T09:32:41;94835.59;;;15.53;47.65
82555;BME280;72219;48.186;11.554;2024-01-06T09:35:07;94837.78;;;15.43;47.45
82555;BME280;72219;48.186;11.554;2024-01-06T09:37:32;94834.50;;;15.34;48.79
82555;BME280;72219;48.186;11.554;2024-01-06T09:39:59;94836.50;;;15.32;49.93
82555;BME280;72219;48.186;11.554;2024-01-06T09:42:24;94841.41;;;15.48;51.00
82555;BME280;72219;48.186;11.554;2024-01-06T09:44:50;94849.50;;;15.60;50.53
82555;BME280;72219;48.186;11.554;2024-01-06T09:47:18;94824.53;;;15.44;50.72
82555;BME280;72219;48.186;11.554;2024-01-06T09:49:49;94841.50;;;15.62;50.37
82555;BME280;72219;48.186;11.554;2024-01-06T09:52:21;94852.31;;;15.59;50.57
82555;BME280;72219;48.186;11.554;2024-01-06T09:54:52;94831.28;;;15.67;50.46
82555;BME280;72219;48.186;11.554;2024-01-06T09:57:18;94840.75;;;15.75;50.06
82555;BME280;72219;48.186;11.554;2024-01-06T09:59:45;94856.09;;;15.85;49.97
82555;BME280;72219;48.186;11.554;2024-01-06T10:02:15;94846.88;;;15.89;49.79
82555;BME280;72219;48.186;11.554;2024-01-06T10:04:41;94841.22;;;15.85;49.36
82555;BME280;72219;48.186;11.554;2024-01-06T10:07:08;94847.69;;;15.89;48.99
82555;BME280;72219;48.186;11.554;2024-01-06T10:09:33;94844.47;;;15.87;48.80
82555;BME280;72219;48.186;11.554;2024-01-06T10:11:58;94853.91;;;15.95;48.68
82555;BME280;72219;48.186;11.554;2024-01-06T10:14:25;94843.09;;;15.91;48.45
82555;BME280;72219;48.186;11.554;2024-01-06T10:16:54;94840.06;;;15.94;48.82
82555;BME280;72219;48.186;11.554;2024-01-06T10:19:19;94842.91;;;16.00;48.44
82555;BME280;72219;48.186;11.554;2024-01-06T10:21:45;94833.06;;;16.02;48.15
82555;BME280;72219;48.186;11.554;2024-01-06T10:24:10;94822.84;;;16.00;47.99
82555;BME280;72219;48.186;11.554;2024-01-06T10:26:36;94820.22;;;16.00;47.77
82555;BME280;72219;48.186;11.554;2024-01-06T10:29:03;94814.38;;;15.91;48.04
82555;BME280;72219;48.186;11.554;2024-01-06T10:31:31;94823.41;;;15.89;48.05
82555;BME280;72219;48.186;11.554;2024-01-06T10:33:57;94796.50;;;15.88;47.81
82555;BME280;72219;48.186;11.554;2024-01-06T10:36:23;94821.81;;;15.94;48.24
82555;BME280;72219;48.186;11.554;2024-01-06T10:38:49;94829.47;;;16.03;48.15
82555;BME280;72219;48.186;11.554;2024-01-06T10:41:16;94828.25;;;15.98;47.86
82555;BME280;72219;48.186;11.554;2024-01-06T10:43:42;94817.16;;;15.83;48.13
82555;BME280;72219;48.186;11.554;2024-01-06T10:46:09;94831.59;;;15.86;48.56
82555;BME280;72219;48.186;11.554;2024-01-06T10:48:38;94830.81;;;15.85;48.41
82555;BME280;72219;48.186;11.554;2024-01-06T10:51:08;94833.22;;;15.87;48.21
82555;BME280;72219;48.186;11.554;2024-01-06T10:53:36;94826.22;;;15.87;47.99
82555;BME280;72219;48.186;11.554;2024-01-06T10:56:05;94817.00;;;15.91;47.51
82555;BME280;72219;48.186;11.554;2024-01-06T10:58:33;94820.81;;;15.95;48.22
82555;BME280;72219;48.186;11.554;2024-01-06T11:01:06;94818.03;;;16.04;47.74
82555;BME280;72219;48.186;11.554;2024-01-06T11:03:32;94820.84;;;16.02;47.63
82555;BME280;72219;48.186;11.554;2024-01-06T11:05:58;94818.81;;;15.97;47.92
82555;BME280;72219;48.186;11.554;2024-01-06T11:08:25;94819.19;;;15.94;47.60
82555;BME280;72219;48.186;11.554;2024-01-06T11:10:51;94817.00;;;15.91;47.57
82555;BME280;72219;48.186;11.554;2024-01-06T11:13:21;94816.75;;;15.86;48.06
82555;BME280;72219;48.186;11.554;2024-01-06T11:15:51;94815.94;;;15.86;47.76
82555;BME280;72219;48.186;11.554;2024-01-06T11:18:36;94813.00;;;15.95;47.56
82555;BME280;72219;48.186;11.554;2024-01-06T11:23:42;94810.75;;;15.92;48.21
82555;BME280;72219;48.186;11.554;2024-01-06T11:26:07;94819.94;;;15.81;48.89
82555;BME280;72219;48.186;11.554;2024-01-06T11:28:51;94804.84;;;15.77;48.54
82555;BME280;72219;48.186;11.554;2024-01-06T11:31:18;94814.09;;;15.79;48.37
82555;BME280;72219;48.186;11.554;2024-01-06T11:33:44;94812.34;;;15.87;48.22
82555;BME280;72219;48.186;11.554;2024-01-06T11:36:14;94810.72;;;15.86;48.02
82555;BME280;72219;48.186;11.554;2024-01-06T11:38:44;94813.75;;;15.89;47.93
82555;BME280;72219;48.186;11.554;2024-01-06T11:41:47;94810.25;;;15.75;48.34
82555;BME280;72219;48.186;11.554;2024-01-06T11:44:18;94811.03;;;15.69;48.87
82555;BME280;72219;48.186;11.554;2024-01-06T11:46:45;94796.97;;;15.63;48.69
82555;BME280;72219;48.186;11.554;2024-01-06T11:49:10;94813.13;;;15.80;48.30
82555;BME280;72219;48.186;11.554;2024-01-06T11:51:37;94805.44;;;15.79;49.17
82555;BME280;72219;48.186;11.554;2024-01-06T11:54:02;94801.88;;;15.80;48.80
82555;BME280;72219;48.186;11.554;2024-01-06T11:56:28;94796.03;;;15.78;48.50
82555;BME280;72219;48.186;11.554;2024-01-06T11:58:53;94778.75;;;15.70;47.89
82555;BME280;72219;48.186;11.554;2024-01-06T12:01:19;94797.22;;;15.75;48.27
82555;BME280;72219;48.186;11.554;2024-01-06T12:03:45;94790.59;;;15.73;48.14
82555;BME280;72219;48.186;11.554;2024-01-06T12:06:10;94786.56;;;15.70;48.44
82555;BME280;72219;48.186;11.554;2024-01-06T12:08:35;94786.97;;;15.67;48.10
82555;BME280;72219;48.186;11.554;2024-01-06T12:11:04;94776.84;;;15.57;48.56
82555;BME280;72219;48.186;11.554;2024-01-06T12:13:30;94770.09;;;15.63;48.10
82555;BME280;72219;48.186;11.554;2024-01-06T12:15:56;94769.06;;;15.64;48.19
82555;BME280;72219;48.186;11.554;2024-01-06T12:18:22;94773.09;;;15.67;48.49
82555;BME280;72219;48.186;11.554;2024-01-06T12:20:49;94762.41;;;15.48;49.01
82555;BME280;72219;48.186;11.554;2024-01-06T12:23:26;94773.66;;;15.55;48.60
82555;BME280;72219;48.186;11.554;2024-01-06T12:25:53;94783.31;;;15.61;48.66
82555;BME280;72219;48.186;11.554;2024-01-06T12:28:19;94782.44;;;15.47;50.03
82555;BME280;72219;48.186;11.554;2024-01-06T12:30:44;94784.69;;;15.57;50.02
82555;BME280;72219;48.186;11.554;2024-01-06T12:33:09;94784.31;;;15.60;49.20
82555;BME280;72219;48.186;11.554;2024-01-06T12:35:35;94774.72;;;15.68;48.78
82555;BME280;72219;48.186;11.554;2024-01-06T12:38:02;94778.78;;;15.77;48.32
82555;BME280;72219;48.186;11.554;2024-01-06T12:40:31;94789.06;;;15.85;47.99
82555;BME280;72219;48.186;11.554;2024-01-06T12:42:57;94791.81;;;15.77;47.58
82555;BME280;72219;48.186;11.554;2024-01-06T12:45:22;94782.78;;;15.79;47.71
82555;BME280;72219;48.186;11.554;2024-01-06T12:47:47;94789.47;;;15.82;47.77